createdAt,value
2018-12-15T00:00:23.298Z,28.50
2018-12-15T00:02:56.034Z,23.55
2018-12-15T00:05:29.149Z,23.47
2018-12-15T00:07:59.983Z,21.20
2018-12-15T00:10:31.983Z,25.77
2018-12-15T00:13:03.440Z,17.12
2018-12-15T00:15:34.258Z,23.07
2018-12-15T00:18:08.285Z,26.60
2018-12-15T00:20:38.956Z,23.95
2018-12-15T00:23:09.653Z,24.37
2018-12-15T00:25:40.367Z,26.52
2018-12-15T00:28:11.103Z,20.92
2018-12-15T00:30:41.791Z,28.12
2018-12-15T00:33:12.528Z,28.00
2018-12-15T00:35:43.183Z,24.85
2018-12-15T00:38:16.773Z,22.95
2018-12-15T00:40:47.454Z,30.85
2018-12-15T00:43:18.193Z,25.25
2018-12-15T00:45:48.862Z,23.18
2018-12-15T00:48:19.698Z,20.17
2018-12-15T00:50:50.759Z,28.75
2018-12-15T00:53:21.444Z,33.60
2018-12-15T00:55:52.069Z,20.95
2018-12-15T00:58:22.771Z,23.77
2018-12-15T01:00:53.904Z,27.80
2018-12-15T01:03:24.616Z,25.00
2018-12-15T01:05:56.371Z,24.67
2018-12-15T01:08:27.113Z,17.42
2018-12-15T01:10:58.112Z,20.62
2018-12-15T01:13:28.848Z,20.82
2018-12-15T01:15:59.596Z,22.65
2018-12-15T01:18:30.438Z,22.80
2018-12-15T01:21:03.199Z,24.98
2018-12-15T01:23:34.263Z,15.32
2018-12-15T01:26:05.103Z,18.45
2018-12-15T01:28:36.260Z,19.55
2018-12-15T01:31:06.950Z,15.43
2018-12-15T01:33:37.698Z,18.12
2018-12-15T01:36:08.710Z,19.30
2018-12-15T01:38:39.775Z,18.15
2018-12-15T01:41:10.943Z,11.75
2018-12-15T01:43:42.027Z,14.65
2018-12-15T01:46:13.082Z,18.37
2018-12-15T01:48:43.779Z,9.00
2018-12-15T01:51:14.476Z,20.27
2018-12-15T01:53:45.215Z,12.18
2018-12-15T01:56:16.564Z,20.15
2018-12-15T01:58:47.321Z,15.55
2018-12-15T02:01:18.717Z,16.87
2018-12-15T02:03:49.436Z,12.60
2018-12-15T02:06:20.194Z,13.60
2018-12-15T02:08:50.936Z,16.40
2018-12-15T02:11:23.619Z,12.98
2018-12-15T02:13:54.289Z,15.05
2018-12-15T02:16:25.130Z,13.10
2018-12-15T02:18:55.833Z,18.48
2018-12-15T02:21:26.745Z,19.17
2018-12-15T02:23:57.453Z,16.57
2018-12-15T02:26:28.362Z,16.57
2018-12-15T02:28:59.030Z,15.50
2018-12-15T02:31:29.828Z,17.55
2018-12-15T02:34:00.510Z,14.55
2018-12-15T02:36:33.816Z,12.28
2018-12-15T02:39:05.893Z,23.45
2018-12-15T02:41:36.604Z,14.60
2018-12-15T02:44:08.761Z,14.10
2018-12-15T02:46:39.457Z,19.70
2018-12-15T02:49:12.425Z,20.32
2018-12-15T02:51:56.120Z,18.15
2018-12-15T02:54:26.834Z,20.55
2018-12-15T02:56:57.536Z,18.15
2018-12-15T02:59:28.322Z,18.23
2018-12-15T03:01:59.233Z,19.95
2018-12-15T03:04:31.723Z,11.63
2018-12-15T03:07:02.608Z,14.33
2018-12-15T03:09:33.297Z,10.95
2018-12-15T03:12:05.049Z,14.43
2018-12-15T03:14:35.769Z,16.35
2018-12-15T03:17:07.764Z,17.32
2018-12-15T03:19:39.706Z,12.00
2018-12-15T03:22:10.808Z,20.90
2018-12-15T03:24:41.593Z,10.15
2018-12-15T03:27:12.265Z,17.27
2018-12-15T03:29:43.013Z,13.98
2018-12-15T03:32:13.678Z,16.62
2018-12-15T03:34:45.222Z,12.55
2018-12-15T03:37:18.664Z,17.42
2018-12-15T03:39:49.594Z,22.52
2018-12-15T03:42:20.355Z,25.57
2018-12-15T03:44:50.987Z,25.08
2018-12-15T03:47:21.673Z,20.70
2018-12-15T03:49:52.428Z,22.80
2018-12-15T03:52:23.079Z,20.20
2018-12-15T03:54:53.870Z,20.08
2018-12-15T03:57:24.579Z,17.15
2018-12-15T03:59:55.441Z,23.22
2018-12-15T04:02:27.853Z,19.87
2018-12-15T04:04:58.654Z,21.50
2018-12-15T04:07:29.381Z,23.12
2018-12-15T04:10:00.063Z,19.57
2018-12-15T04:12:30.871Z,24.72
2018-12-15T04:15:06.095Z,19.90
2018-12-15T04:17:37.351Z,25.65
2018-12-15T04:20:08.180Z,23.52
2018-12-15T04:22:38.964Z,18.57
2018-12-15T04:25:09.603Z,23.67
2018-12-15T04:27:40.731Z,21.40
2018-12-15T04:30:12.832Z,16.12
2018-12-15T04:32:45.367Z,29.60
2018-12-15T04:35:16.210Z,22.15
2018-12-15T04:37:46.874Z,25.35
2018-12-15T04:40:19.115Z,19.50
2018-12-15T04:42:49.846Z,23.42
2018-12-15T04:45:20.673Z,19.57
2018-12-15T04:47:51.504Z,20.15
2018-12-15T04:50:22.911Z,15.93
2018-12-15T04:52:54.110Z,25.82
2018-12-15T04:55:24.868Z,15.00
2018-12-15T04:57:55.535Z,16.57
2018-12-15T05:00:26.272Z,20.77
2018-12-15T05:02:56.950Z,20.95
2018-12-15T05:05:27.706Z,23.15
2018-12-15T05:07:58.822Z,16.67
2018-12-15T05:10:29.623Z,16.90
2018-12-15T05:13:00.260Z,23.42
2018-12-15T05:15:32.043Z,22.40
2018-12-15T05:18:05.255Z,22.82
2018-12-15T05:20:36.272Z,22.05
2018-12-15T05:23:07.045Z,15.88
2018-12-15T05:25:38.749Z,26.33
2018-12-15T05:28:09.500Z,18.37
2018-12-15T05:30:41.081Z,16.93
2018-12-15T05:33:11.757Z,27.15
2018-12-15T05:35:42.693Z,18.17
2018-12-15T05:38:13.335Z,26.20
2018-12-15T05:40:44.054Z,15.65
2018-12-15T05:43:14.790Z,18.73
2018-12-15T05:45:45.461Z,18.05
2018-12-15T05:48:16.187Z,26.85
2018-12-15T05:50:47.158Z,20.10
2018-12-15T05:53:17.916Z,16.90
2018-12-15T05:55:48.549Z,23.27
2018-12-15T05:58:19.279Z,27.35
2018-12-15T06:00:52.060Z,20.65
2018-12-15T06:03:23.051Z,24.15
2018-12-15T06:05:53.816Z,19.20
2018-12-15T06:08:24.544Z,22.25
2018-12-15T06:10:55.286Z,22.40
2018-12-15T06:13:26.021Z,20.88
2018-12-15T06:15:56.717Z,23.12
2018-12-15T06:18:31.679Z,19.73
2018-12-15T06:21:00.923Z,23.75
2018-12-15T06:23:36.899Z,15.55
2018-12-15T06:26:07.587Z,17.55
2018-12-15T06:28:38.309Z,17.70
2018-12-15T06:31:09.023Z,15.72
2018-12-15T06:33:41.618Z,13.22
2018-12-15T06:36:12.338Z,11.93
2018-12-15T06:38:43.642Z,17.37
2018-12-15T06:41:14.273Z,12.88
2018-12-15T06:43:46.261Z,14.60
2018-12-15T06:46:16.923Z,14.68
2018-12-15T06:48:47.848Z,18.40
2018-12-15T06:51:18.491Z,12.65
2018-12-15T06:53:49.323Z,13.45
2018-12-15T06:56:22.053Z,11.20
2018-12-15T06:58:52.785Z,13.98
2018-12-15T07:01:23.727Z,11.33
2018-12-15T07:03:55.188Z,13.80
2018-12-15T07:06:25.952Z,16.50
2018-12-15T07:08:56.670Z,11.57
2018-12-15T07:11:27.371Z,13.78
2018-12-15T07:13:58.057Z,12.30
2018-12-15T07:16:31.694Z,15.38
2018-12-15T07:19:04.600Z,18.62
2018-12-15T07:21:35.299Z,11.33
2018-12-15T07:24:05.929Z,11.08
2018-12-15T07:26:37.620Z,10.03
2018-12-15T07:29:08.610Z,18.55
2018-12-15T07:31:39.307Z,10.53
2018-12-15T07:34:10.098Z,11.38
2018-12-15T07:36:41.325Z,8.15
2018-12-15T07:39:12.747Z,12.82
2018-12-15T07:41:43.919Z,16.42
2018-12-15T07:44:14.711Z,14.07
2018-12-15T07:46:45.437Z,15.45
2018-12-15T07:49:16.508Z,9.58
2018-12-15T07:51:47.168Z,13.95
2018-12-15T07:54:17.900Z,20.12
2018-12-15T07:56:51.676Z,15.00
2018-12-15T07:59:22.454Z,16.95
2018-12-15T08:01:54.989Z,15.45
2018-12-15T08:04:25.691Z,14.47
2018-12-15T08:06:56.336Z,11.83
2018-12-15T08:09:27.044Z,13.98
2018-12-15T08:12:03.575Z,15.83
2018-12-15T08:14:34.208Z,12.73
2018-12-15T08:17:05.488Z,7.30
2018-12-15T08:19:36.106Z,10.78
2018-12-15T08:22:06.868Z,15.48
2018-12-15T08:24:37.518Z,12.70
2018-12-15T08:27:08.267Z,13.45
2018-12-15T08:29:40.177Z,13.83
2018-12-15T08:32:11.085Z,13.10
2018-12-15T08:34:41.974Z,12.63
2018-12-15T08:37:12.787Z,12.20
2018-12-15T08:39:43.782Z,9.25
2018-12-15T08:42:15.063Z,16.70
2018-12-15T08:44:45.911Z,9.73
2018-12-15T08:47:16.677Z,13.55
2018-12-15T08:49:47.357Z,9.18
2018-12-15T08:52:19.123Z,11.65
2018-12-15T08:54:49.815Z,11.20
2018-12-15T08:57:25.468Z,13.90
2018-12-15T08:59:56.181Z,9.40
2018-12-15T09:02:26.896Z,16.30
2018-12-15T09:04:59.337Z,12.35
2018-12-15T09:07:30.086Z,8.53
2018-12-15T09:10:00.805Z,8.95
2018-12-15T09:12:33.935Z,8.78
2018-12-15T09:21:35.192Z,5.92
2018-12-15T09:27:46.516Z,5.17
2018-12-15T09:54:27.389Z,7.53
2018-12-15T09:59:39.415Z,7.78
2018-12-15T10:02:10.369Z,8.18
2018-12-15T10:08:10.691Z,10.35
2018-12-15T10:10:50.054Z,12.45
2018-12-15T10:13:26.756Z,12.28
2018-12-15T10:15:57.991Z,17.55
2018-12-15T10:18:28.642Z,12.28
2018-12-15T10:20:59.629Z,9.70
2018-12-15T10:23:30.354Z,11.15
2018-12-15T10:26:01.149Z,12.25
2018-12-15T10:28:35.966Z,14.00
2018-12-15T10:31:14.337Z,14.50
2018-12-15T10:33:56.851Z,23.52
2018-12-15T10:36:32.214Z,17.05
2018-12-15T10:39:07.816Z,24.67
2018-12-15T10:41:39.586Z,15.15
2018-12-15T10:44:16.218Z,19.87
2018-12-15T10:46:46.900Z,21.82
2018-12-15T10:49:20.082Z,19.02
2018-12-15T10:51:51.208Z,16.65
2018-12-15T10:54:22.005Z,13.05
2018-12-15T10:56:52.958Z,21.80
2018-12-15T10:59:23.693Z,19.95
2018-12-15T11:01:54.434Z,21.85
2018-12-15T11:04:25.157Z,18.05
2018-12-15T11:06:55.802Z,19.65
2018-12-15T11:09:27.379Z,19.27
2018-12-15T11:11:58.072Z,16.73
2018-12-15T11:14:29.959Z,20.70
2018-12-15T11:17:00.986Z,16.23
2018-12-15T11:19:37.174Z,15.70
2018-12-15T11:22:08.187Z,22.40
2018-12-15T11:24:39.974Z,19.37
2018-12-15T11:27:11.895Z,17.77
2018-12-15T11:29:43.051Z,32.17
2018-12-15T11:32:13.786Z,46.45
2018-12-15T11:34:44.410Z,49.60
2018-12-15T11:37:15.122Z,25.32
2018-12-15T11:39:45.782Z,27.67
2018-12-15T11:42:16.492Z,24.05
2018-12-15T11:44:47.165Z,22.65
2018-12-15T11:47:18.321Z,21.82
2018-12-15T11:49:49.157Z,21.35
2018-12-15T11:52:19.803Z,17.62
2018-12-15T11:54:50.575Z,23.55
2018-12-15T11:57:21.298Z,21.82
2018-12-15T11:59:52.380Z,20.72
2018-12-15T12:02:23.214Z,21.27
2018-12-15T12:04:55.373Z,22.82
2018-12-15T12:07:26.118Z,18.25
2018-12-15T12:09:56.869Z,28.90
2018-12-15T12:12:27.590Z,19.32
2018-12-15T12:14:58.264Z,22.65
2018-12-15T12:17:29.247Z,28.98
2018-12-15T12:19:59.937Z,27.95
2018-12-15T12:22:30.602Z,17.27
2018-12-15T12:25:05.293Z,13.08
2018-12-15T12:27:38.025Z,21.27
2018-12-15T12:30:09.185Z,17.73
2018-12-15T12:32:40.413Z,18.87
2018-12-15T12:35:12.029Z,21.73
2018-12-15T12:37:42.700Z,17.35
2018-12-15T12:40:14.826Z,17.98
2018-12-15T12:42:45.724Z,31.20
2018-12-15T12:45:16.532Z,21.45
2018-12-15T12:47:47.392Z,20.55
2018-12-15T12:50:18.041Z,22.77
2018-12-15T12:52:48.760Z,18.98
2018-12-15T12:55:20.130Z,20.27
2018-12-15T12:57:50.842Z,18.82
2018-12-15T13:00:22.052Z,22.70
2018-12-15T13:02:52.784Z,14.58
2018-12-15T13:05:23.600Z,19.40
2018-12-15T13:07:54.391Z,22.02
2018-12-15T13:10:25.635Z,30.92
2018-12-15T13:12:56.343Z,14.35
2018-12-15T13:15:27.175Z,15.23
2018-12-15T13:17:58.027Z,8.38
2018-12-15T13:20:28.738Z,7.92
2018-12-15T13:22:59.408Z,12.50
2018-12-15T13:25:30.964Z,9.75
2018-12-15T13:28:03.046Z,13.03
2018-12-15T13:30:34.818Z,12.43
2018-12-15T13:33:15.344Z,15.58
2018-12-15T13:35:46.100Z,10.03
2018-12-15T13:38:16.763Z,26.25
2018-12-15T13:40:48.542Z,13.53
2018-12-15T13:43:19.391Z,15.85
2018-12-15T13:45:51.767Z,11.88
2018-12-15T13:48:22.542Z,21.17
2018-12-15T13:50:54.145Z,11.35
2018-12-15T13:53:25.297Z,14.50
2018-12-15T13:55:55.984Z,6.80
2018-12-15T13:58:26.891Z,8.13
2018-12-15T14:00:57.745Z,13.05
2018-12-15T14:03:28.698Z,10.65
2018-12-15T14:05:59.519Z,11.00
2018-12-15T14:08:30.268Z,7.85
2018-12-15T14:11:00.924Z,9.93
2018-12-15T14:13:34.911Z,8.58
2018-12-15T14:16:05.575Z,5.75
2018-12-15T14:18:36.301Z,5.30
2018-12-15T14:21:06.994Z,6.10
2018-12-15T14:23:37.730Z,5.30
2018-12-15T14:26:08.393Z,6.85
2018-12-15T14:28:39.281Z,4.00
2018-12-15T14:31:09.984Z,9.10
2018-12-15T14:33:40.599Z,6.85
2018-12-15T14:36:11.821Z,6.78
2018-12-15T14:38:42.463Z,7.08
2018-12-15T14:41:13.959Z,4.92
2018-12-15T14:43:44.739Z,7.05
2018-12-15T14:46:15.424Z,3.80
2018-12-15T14:48:46.163Z,4.08
2018-12-15T14:51:16.883Z,7.33
2018-12-15T14:53:48.436Z,4.22
2018-12-15T14:56:20.303Z,5.70
2018-12-15T14:58:52.123Z,5.22
2018-12-15T15:01:22.748Z,4.53
2018-12-15T15:03:53.479Z,4.50
2018-12-15T15:06:24.222Z,4.65
2018-12-15T15:08:55.624Z,3.27
2018-12-15T15:11:26.311Z,4.85
2018-12-15T15:13:56.933Z,3.55
2018-12-15T15:16:28.768Z,3.60
2018-12-15T15:18:59.433Z,4.42
2018-12-15T15:21:30.254Z,4.80
2018-12-15T15:24:00.897Z,4.42
2018-12-15T15:26:32.041Z,3.50
2018-12-15T15:29:03.685Z,3.33
2018-12-15T15:31:35.542Z,4.10
2018-12-15T15:34:06.267Z,5.33
2018-12-15T15:36:39.470Z,4.70
2018-12-15T15:39:10.158Z,4.05
2018-12-15T15:41:40.971Z,5.15
2018-12-15T15:44:11.716Z,2.25
2018-12-15T15:46:43.065Z,3.95
2018-12-15T15:49:13.808Z,2.87
2018-12-15T15:51:46.640Z,3.67
2018-12-15T15:54:18.056Z,3.12
2018-12-15T15:56:48.895Z,5.12
2018-12-15T15:59:19.701Z,1.67
2018-12-15T16:01:50.433Z,2.95
2018-12-15T16:04:22.193Z,2.27
2018-12-15T16:06:57.206Z,6.53
2018-12-15T16:09:28.935Z,2.92
2018-12-15T16:11:59.863Z,3.33
2018-12-15T16:14:30.792Z,2.42
2018-12-15T16:17:04.565Z,5.50
2018-12-15T16:19:35.359Z,3.98
2018-12-15T16:22:06.097Z,11.85
2018-12-15T16:24:36.861Z,12.82
2018-12-15T16:27:08.688Z,8.75
2018-12-15T16:29:39.473Z,6.33
2018-12-15T16:32:10.194Z,7.60
2018-12-15T16:34:40.962Z,5.00
2018-12-15T16:37:11.876Z,8.53
2018-12-15T16:39:42.744Z,8.93
2018-12-15T16:42:13.916Z,7.37
2018-12-15T16:44:44.762Z,12.18
2018-12-15T16:47:15.692Z,12.45
2018-12-15T16:49:46.479Z,8.35
2018-12-15T16:52:17.829Z,6.83
2018-12-15T16:54:51.433Z,12.93
2018-12-15T16:57:22.410Z,7.67
2018-12-15T16:59:53.307Z,12.88
2018-12-15T17:02:25.572Z,9.05
2018-12-15T17:04:56.441Z,10.00
2018-12-15T17:07:27.721Z,4.10
2018-12-15T17:09:58.614Z,5.87
2018-12-15T17:12:30.787Z,6.72
2018-12-15T17:15:03.904Z,5.10
2018-12-15T17:17:35.126Z,5.37
2018-12-15T17:20:07.530Z,4.17
2018-12-15T17:22:38.407Z,6.12
2018-12-15T17:25:09.733Z,8.65
2018-12-15T17:27:40.793Z,8.30
2018-12-15T17:30:12.118Z,10.18
2018-12-15T17:32:42.805Z,11.57
2018-12-15T17:35:13.776Z,7.65
2018-12-15T17:37:45.986Z,7.25
2018-12-15T17:40:17.675Z,7.33
2018-12-15T17:42:48.448Z,8.95
2018-12-15T17:45:19.207Z,5.70
2018-12-15T17:47:49.880Z,5.58
2018-12-15T17:50:20.641Z,6.05
2018-12-15T17:52:51.396Z,5.15
2018-12-15T17:55:25.201Z,3.52
2018-12-15T17:57:55.927Z,3.65
2018-12-15T18:00:26.661Z,4.08
2018-12-15T18:02:57.387Z,6.15
2018-12-15T18:05:28.815Z,3.87
2018-12-15T18:07:59.897Z,4.60
2018-12-15T18:10:30.677Z,3.72
2018-12-15T18:13:03.349Z,4.67
2018-12-15T18:15:34.094Z,4.47
2018-12-15T18:18:05.984Z,5.60
2018-12-15T18:20:37.889Z,6.85
2018-12-15T18:23:08.889Z,6.33
2018-12-15T18:25:40.581Z,5.28
2018-12-15T18:28:11.704Z,4.92
2018-12-15T18:30:42.479Z,4.78
2018-12-15T18:33:13.523Z,4.12
2018-12-15T18:35:44.264Z,4.25
2018-12-15T18:38:15.099Z,5.92
2018-12-15T18:40:45.824Z,3.15
2018-12-15T18:43:16.610Z,2.90
2018-12-15T18:45:47.336Z,2.95
2018-12-15T18:48:18.108Z,4.08
2018-12-15T18:50:48.856Z,3.22
2018-12-15T18:53:19.633Z,3.47
2018-12-15T18:55:51.575Z,2.67
2018-12-15T18:58:22.451Z,3.37
2018-12-15T19:00:53.307Z,3.30
2018-12-15T19:03:25.213Z,2.27
2018-12-15T19:05:56.109Z,2.40
2018-12-15T19:08:27.876Z,2.02
2018-12-15T19:10:58.720Z,2.37
2018-12-15T19:13:29.521Z,1.50
2018-12-15T19:16:00.237Z,1.95
2018-12-15T19:18:34.895Z,6.00
2018-12-15T19:21:11.346Z,1.67
2018-12-15T19:23:42.405Z,2.08
2018-12-15T19:26:14.210Z,2.33
2018-12-15T19:28:45.106Z,2.20
2018-12-15T19:31:16.034Z,1.35
2018-12-15T19:33:47.255Z,1.65
2018-12-15T19:36:17.995Z,1.50
2018-12-15T19:38:50.097Z,3.40
2018-12-15T19:41:21.894Z,2.35
2018-12-15T19:43:52.910Z,1.82
2018-12-15T19:46:23.663Z,1.90
2018-12-15T19:48:54.328Z,2.75
2018-12-15T19:51:29.534Z,1.72
2018-12-15T19:53:57.945Z,1.95
2018-12-15T19:56:28.763Z,4.62
2018-12-15T19:59:00.302Z,4.55
2018-12-15T20:01:31.983Z,3.40
2018-12-15T20:04:07.272Z,1.95
2018-12-15T20:06:39.019Z,2.45
2018-12-15T20:09:10.449Z,1.95
2018-12-15T20:11:41.199Z,2.25
2018-12-15T20:14:12.150Z,2.90
2018-12-15T20:16:42.872Z,4.03
2018-12-15T20:19:13.752Z,4.42
2018-12-15T20:21:44.911Z,1.50
2018-12-15T20:24:16.272Z,1.60
2018-12-15T20:26:47.127Z,1.27
2018-12-15T20:29:18.067Z,1.60
2018-12-15T20:31:48.964Z,2.62
2018-12-15T20:34:19.944Z,2.90
2018-12-15T20:36:52.225Z,2.72
2018-12-15T20:39:23.987Z,1.75
2018-12-15T20:41:54.784Z,2.92
2018-12-15T20:44:26.562Z,2.22
2018-12-15T20:46:57.669Z,1.82
2018-12-15T20:49:28.951Z,2.77
2018-12-15T20:51:59.871Z,5.15
2018-12-15T20:54:30.768Z,1.55
2018-12-15T20:57:03.704Z,2.35
2018-12-15T20:59:34.591Z,2.08
2018-12-15T21:02:05.533Z,1.67
2018-12-15T21:04:36.386Z,1.67
2018-12-15T21:07:07.245Z,2.15
2018-12-15T21:09:38.727Z,2.37
2018-12-15T21:12:10.139Z,2.27
2018-12-15T21:14:41.087Z,1.98
2018-12-15T21:17:12.618Z,2.67
2018-12-15T21:19:47.890Z,2.52
2018-12-15T21:22:16.279Z,2.20
2018-12-15T21:24:48.086Z,1.75
2018-12-15T21:27:19.094Z,2.72
2018-12-15T21:29:50.243Z,2.12
2018-12-15T21:32:22.223Z,2.92
2018-12-15T21:34:53.137Z,2.35
2018-12-15T21:37:26.309Z,2.67
2018-12-15T21:39:57.414Z,2.87
2018-12-15T21:42:28.300Z,3.80
2018-12-15T21:44:59.221Z,1.15
2018-12-15T21:47:31.400Z,2.10
2018-12-15T21:50:05.342Z,1.30
2018-12-15T21:52:36.588Z,2.33
2018-12-15T21:55:08.723Z,1.15
2018-12-15T21:57:40.050Z,1.07
2018-12-15T22:00:12.101Z,1.52
2018-12-15T22:02:44.299Z,1.17
2018-12-15T22:05:15.631Z,1.77
2018-12-15T22:07:47.621Z,2.55
2018-12-15T22:10:18.658Z,1.32
2018-12-15T22:12:50.927Z,2.00
2018-12-15T22:15:22.104Z,3.55
2018-12-15T22:17:54.499Z,1.70
2018-12-15T22:20:25.959Z,1.27
2018-12-15T22:22:57.066Z,1.30
2018-12-15T22:25:28.169Z,2.87
2018-12-15T22:28:00.266Z,4.10
2018-12-15T22:30:40.185Z,2.10
2018-12-15T22:33:13.732Z,0.98
2018-12-15T22:35:46.244Z,1.00
2018-12-15T22:38:22.827Z,4.22
2018-12-15T22:40:53.872Z,0.88
2018-12-15T22:43:34.317Z,1.67
2018-12-15T22:46:08.347Z,1.27
2018-12-15T22:48:40.212Z,2.42
2018-12-15T22:51:13.239Z,0.98
2018-12-15T22:53:44.525Z,1.47
2018-12-15T22:56:15.755Z,3.42
2018-12-15T22:58:46.844Z,1.47
2018-12-15T23:01:19.191Z,1.00
2018-12-15T23:03:50.343Z,1.45
2018-12-15T23:06:21.709Z,1.10
2018-12-15T23:08:54.835Z,2.40
2018-12-15T23:11:26.063Z,3.72
2018-12-15T23:13:57.784Z,2.00
2018-12-15T23:16:30.668Z,4.00
2018-12-15T23:19:05.339Z,1.50
2018-12-15T23:21:36.166Z,3.27
2018-12-15T23:24:07.029Z,3.70
2018-12-15T23:26:38.483Z,2.10
2018-12-15T23:29:09.373Z,4.58
2018-12-15T23:31:40.285Z,1.55
2018-12-15T23:34:12.338Z,1.87
2018-12-15T23:36:43.425Z,2.00
2018-12-15T23:39:14.839Z,2.12
2018-12-15T23:41:45.769Z,1.00
2018-12-15T23:44:17.512Z,3.20
2018-12-15T23:46:48.725Z,0.72
2018-12-15T23:49:19.726Z,2.15
2018-12-15T23:51:50.533Z,1.27
2018-12-15T23:54:21.233Z,1.12
2018-12-15T23:56:51.959Z,2.77
2018-12-15T23:59:28.827Z,3.22
